sensor_id;sensor_type;location;lat;lon;timestamp;P1;durP1;ratioP1;P2;durP2;ratioP2
46365;SDS011;32073;49.166;8.076;2023-03-01T00:01:34;11.30;;;6.30;;
46365;SDS011;32073;49.166;8.076;2023-03-01T00:05:34;11.48;;;6.18;;
46365;SDS011;32073;49.166;8.076;2023-03-01T00:09:36;11.07;;;6.68;;
46365;SDS011;32073;49.166;8.076;2023-03-01T00:13:37;12.07;;;6.50;;
46365;SDS011;32073;49.166;8.076;2023-03-01T00:17:38;9.70;;;5.38;;
46365;SDS011;32073;49.166;8.076;2023-03-01T00:21:39;11.32;;;6.72;;
46365;SDS011;32073;49.166;8.076;2023-03-01T00:25:43;10.43;;;6.25;;
46365;SDS011;32073;49.166;8.076;2023-03-01T00:29:44;13.65;;;7.05;;
46365;SDS011;32073;49.166;8.076;2023-03-01T00:33:45;14.63;;;6.93;;
46365;SDS011;32073;49.166;8.076;2023-03-01T00:37:46;9.50;;;6.00;;
46365;SDS011;32073;49.166;8.076;2023-03-01T00:41:47;9.20;;;5.65;;
46365;SDS011;32073;49.166;8.076;2023-03-01T00:45:47;10.88;;;6.25;;
46365;SDS011;32073;49.166;8.076;2023-03-01T00:49:48;12.30;;;6.47;;
46365;SDS011;32073;49.166;8.076;2023-03-01T00:53:53;13.00;;;6.55;;
46365;SDS011;32073;49.166;8.076;2023-03-01T00:57:56;13.85;;;6.13;;
46365;SDS011;32073;49.166;8.076;2023-03-01T01:01:57;13.27;;;6.43;;
46365;SDS011;32073;49.166;8.076;2023-03-01T01:05:59;9.75;;;6.03;;
46365;SDS011;32073;49.166;8.076;2023-03-01T01:10:05;12.00;;;6.43;;
46365;SDS011;32073;49.166;8.076;2023-03-01T01:14:06;10.68;;;6.20;;
46365;SDS011;32073;49.166;8.076;2023-03-01T01:18:07;11.32;;;6.35;;
46365;SDS011;32073;49.166;8.076;2023-03-01T01:22:08;12.48;;;6.50;;
46365;SDS011;32073;49.166;8.076;2023-03-01T01:26:10;11.05;;;6.25;;
46365;SDS011;32073;49.166;8.076;2023-03-01T01:30:18;12.57;;;6.32;;
46365;SDS011;32073;49.166;8.076;2023-03-01T01:34:19;10.35;;;6.70;;
46365;SDS011;32073;49.166;8.076;2023-03-01T01:38:21;11.60;;;6.25;;
46365;SDS011;32073;49.166;8.076;2023-03-01T01:42:22;13.85;;;6.95;;
46365;SDS011;32073;49.166;8.076;2023-03-01T01:46:28;11.52;;;6.95;;
46365;SDS011;32073;49.166;8.076;2023-03-01T01:50:32;11.80;;;7.07;;
46365;SDS011;32073;49.166;8.076;2023-03-01T01:54:42;12.15;;;6.93;;
46365;SDS011;32073;49.166;8.076;2023-03-01T01:59:05;12.48;;;7.15;;
46365;SDS011;32073;49.166;8.076;2023-03-01T02:03:09;13.07;;;6.78;;
46365;SDS011;32073;49.166;8.076;2023-03-01T02:07:19;15.43;;;7.65;;
46365;SDS011;32073;49.166;8.076;2023-03-01T02:11:23;13.07;;;7.18;;
46365;SDS011;32073;49.166;8.076;2023-03-01T02:15:25;11.85;;;6.70;;
46365;SDS011;32073;49.166;8.076;2023-03-01T02:23:46;11.82;;;6.95;;
46365;SDS011;32073;49.166;8.076;2023-03-01T02:27:59;13.93;;;7.03;;
46365;SDS011;32073;49.166;8.076;2023-03-01T02:32:13;13.48;;;7.60;;
46365;SDS011;32073;49.166;8.076;2023-03-01T02:36:17;14.18;;;7.35;;
46365;SDS011;32073;49.166;8.076;2023-03-01T02:40:20;13.02;;;7.80;;
46365;SDS011;32073;49.166;8.076;2023-03-01T02:44:21;12.43;;;6.90;;
46365;SDS011;32073;49.166;8.076;2023-03-01T02:48:22;15.68;;;7.85;;
46365;SDS011;32073;49.166;8.076;2023-03-01T02:57:08;16.65;;;8.30;;
46365;SDS011;32073;49.166;8.076;2023-03-01T03:01:09;12.95;;;7.28;;
46365;SDS011;32073;49.166;8.076;2023-03-01T03:05:14;13.73;;;7.15;;
46365;SDS011;32073;49.166;8.076;2023-03-01T03:09:18;14.68;;;7.85;;
46365;SDS011;32073;49.166;8.076;2023-03-01T03:13:19;13.95;;;7.60;;
46365;SDS011;32073;49.166;8.076;2023-03-01T03:17:21;12.93;;;7.40;;
46365;SDS011;32073;49.166;8.076;2023-03-01T03:21:22;14.35;;;8.02;;
46365;SDS011;32073;49.166;8.076;2023-03-01T03:25:23;15.38;;;7.93;;
46365;SDS011;32073;49.166;8.076;2023-03-01T03:29:25;14.40;;;7.75;;
46365;SDS011;32073;49.166;8.076;2023-03-01T03:33:26;13.00;;;7.68;;
46365;SDS011;32073;49.166;8.076;2023-03-01T03:37:26;14.82;;;8.13;;
46365;SDS011;32073;49.166;8.076;2023-03-01T03:41:46;15.45;;;8.52;;
46365;SDS011;32073;49.166;8.076;2023-03-01T03:45:47;12.50;;;7.70;;
46365;SDS011;32073;49.166;8.076;2023-03-01T03:49:49;15.00;;;8.35;;
46365;SDS011;32073;49.166;8.076;2023-03-01T03:53:50;17.77;;;8.38;;
46365;SDS011;32073;49.166;8.076;2023-03-01T03:57:50;13.65;;;8.00;;
46365;SDS011;32073;49.166;8.076;2023-03-01T04:01:51;17.45;;;8.85;;
46365;SDS011;32073;49.166;8.076;2023-03-01T04:05:52;17.88;;;9.13;;
46365;SDS011;32073;49.166;8.076;2023-03-01T04:09:53;14.77;;;7.95;;
46365;SDS011;32073;49.166;8.076;2023-03-01T04:13:54;15.20;;;8.10;;
46365;SDS011;32073;49.166;8.076;2023-03-01T04:17:58;14.73;;;8.27;;
46365;SDS011;32073;49.166;8.076;2023-03-01T04:21:59;18.73;;;9.10;;
46365;SDS011;32073;49.166;8.076;2023-03-01T04:26:00;14.10;;;8.20;;
46365;SDS011;32073;49.166;8.076;2023-03-01T04:30:01;14.93;;;8.23;;
46365;SDS011;32073;49.166;8.076;2023-03-01T04:34:03;14.48;;;8.65;;
46365;SDS011;32073;49.166;8.076;2023-03-01T04:38:04;12.35;;;7.03;;
46365;SDS011;32073;49.166;8.076;2023-03-01T04:42:05;16.38;;;8.07;;
46365;SDS011;32073;49.166;8.076;2023-03-01T04:46:07;15.05;;;8.95;;
46365;SDS011;32073;49.166;8.076;2023-03-01T04:50:12;16.13;;;8.10;;
46365;SDS011;32073;49.166;8.076;2023-03-01T04:54:16;17.30;;;8.52;;
46365;SDS011;32073;49.166;8.076;2023-03-01T04:58:16;15.75;;;8.32;;
46365;SDS011;32073;49.166;8.076;2023-03-01T05:02:17;16.58;;;9.13;;
46365;SDS011;32073;49.166;8.076;2023-03-01T05:06:18;17.00;;;8.75;;
46365;SDS011;32073;49.166;8.076;2023-03-01T05:10:20;16.27;;;8.77;;
46365;SDS011;32073;49.166;8.076;2023-03-01T05:14:21;17.88;;;8.82;;
46365;SDS011;32073;49.166;8.076;2023-03-01T05:18:23;16.70;;;8.65;;
46365;SDS011;32073;49.166;8.076;2023-03-01T05:22:27;20.05;;;9.20;;
46365;SDS011;32073;49.166;8.076;2023-03-01T05:26:28;14.88;;;8.68;;
46365;SDS011;32073;49.166;8.076;2023-03-01T05:30:28;19.80;;;9.88;;
46365;SDS011;32073;49.166;8.076;2023-03-01T05:34:30;16.25;;;9.13;;
46365;SDS011;32073;49.166;8.076;2023-03-01T05:38:33;21.08;;;9.23;;
46365;SDS011;32073;49.166;8.076;2023-03-01T05:42:34;17.70;;;9.02;;
46365;SDS011;32073;49.166;8.076;2023-03-01T05:46:35;18.77;;;10.25;;
46365;SDS011;32073;49.166;8.076;2023-03-01T05:50:36;17.33;;;9.32;;
46365;SDS011;32073;49.166;8.076;2023-03-01T05:54:43;17.17;;;9.80;;
46365;SDS011;32073;49.166;8.076;2023-03-01T05:58:44;17.35;;;9.73;;
46365;SDS011;32073;49.166;8.076;2023-03-01T06:02:44;19.65;;;10.02;;
46365;SDS011;32073;49.166;8.076;2023-03-01T06:06:45;17.08;;;9.73;;
46365;SDS011;32073;49.166;8.076;2023-03-01T06:10:46;15.75;;;9.20;;
46365;SDS011;32073;49.166;8.076;2023-03-01T06:14:47;18.27;;;9.65;;
46365;SDS011;32073;49.166;8.076;2023-03-01T06:18:48;17.27;;;9.57;;
46365;SDS011;32073;49.166;8.076;2023-03-01T06:22:49;20.13;;;9.43;;
46365;SDS011;32073;49.166;8.076;2023-03-01T06:26:53;20.15;;;9.30;;
46365;SDS011;32073;49.166;8.076;2023-03-01T06:30:53;19.02;;;9.98;;
46365;SDS011;32073;49.166;8.076;2023-03-01T06:34:54;19.08;;;10.13;;
46365;SDS011;32073;49.166;8.076;2023-03-01T06:38:55;16.58;;;9.43;;
46365;SDS011;32073;49.166;8.076;2023-03-01T06:42:55;17.20;;;9.65;;
46365;SDS011;32073;49.166;8.076;2023-03-01T06:46:56;23.40;;;9.95;;
46365;SDS011;32073;49.166;8.076;2023-03-01T06:51:00;18.63;;;10.25;;
46365;SDS011;32073;49.166;8.076;2023-03-01T06:55:01;18.85;;;9.95;;
46365;SDS011;32073;49.166;8.076;2023-03-01T06:59:02;19.45;;;10.20;;
46365;SDS011;32073;49.166;8.076;2023-03-01T07:03:03;17.52;;;10.27;;
46365;SDS011;32073;49.166;8.076;2023-03-01T07:07:03;21.13;;;11.20;;
46365;SDS011;32073;49.166;8.076;2023-03-01T07:11:04;22.17;;;12.05;;
46365;SDS011;32073;49.166;8.076;2023-03-01T07:15:05;18.15;;;10.70;;
46365;SDS011;32073;49.166;8.076;2023-03-01T07:19:09;21.88;;;11.00;;
46365;SDS011;32073;49.166;8.076;2023-03-01T07:23:09;20.73;;;10.70;;
46365;SDS011;32073;49.166;8.076;2023-03-01T07:27:11;20.08;;;10.73;;
46365;SDS011;32073;49.166;8.076;2023-03-01T07:31:12;21.20;;;10.93;;
46365;SDS011;32073;49.166;8.076;2023-03-01T07:35:13;24.33;;;10.80;;
46365;SDS011;32073;49.166;8.076;2023-03-01T07:39:14;19.90;;;10.15;;
46365;SDS011;32073;49.166;8.076;2023-03-01T07:43:15;20.20;;;11.30;;
46365;SDS011;32073;49.166;8.076;2023-03-01T07:47:16;19.67;;;10.73;;
46365;SDS011;32073;49.166;8.076;2023-03-01T07:51:16;21.00;;;11.27;;
46365;SDS011;32073;49.166;8.076;2023-03-01T07:55:17;17.42;;;10.23;;
46365;SDS011;32073;49.166;8.076;2023-03-01T07:59:18;20.23;;;10.55;;
46365;SDS011;32073;49.166;8.076;2023-03-01T08:03:18;19.90;;;11.07;;
46365;SDS011;32073;49.166;8.076;2023-03-01T08:07:19;17.33;;;10.05;;
46365;SDS011;32073;49.166;8.076;2023-03-01T08:11:19;20.25;;;10.20;;
46365;SDS011;32073;49.166;8.076;2023-03-01T08:15:20;18.90;;;10.52;;
46365;SDS011;32073;49.166;8.076;2023-03-01T08:19:21;18.92;;;10.25;;
46365;SDS011;32073;49.166;8.076;2023-03-01T08:23:23;22.45;;;11.27;;
46365;SDS011;32073;49.166;8.076;2023-03-01T08:27:24;23.33;;;11.95;;
46365;SDS011;32073;49.166;8.076;2023-03-01T08:31:26;21.65;;;11.50;;
46365;SDS011;32073;49.166;8.076;2023-03-01T08:35:30;19.55;;;10.73;;
46365;SDS011;32073;49.166;8.076;2023-03-01T08:39:30;18.83;;;10.77;;
46365;SDS011;32073;49.166;8.076;2023-03-01T08:43:31;18.25;;;11.13;;
46365;SDS011;32073;49.166;8.076;2023-03-01T08:47:32;30.38;;;11.27;;
46365;SDS011;32073;49.166;8.076;2023-03-01T08:51:33;21.58;;;11.15;;
46365;SDS011;32073;49.166;8.076;2023-03-01T08:55:36;20.60;;;11.35;;
46365;SDS011;32073;49.166;8.076;2023-03-01T08:59:37;22.05;;;11.52;;
46365;SDS011;32073;49.166;8.076;2023-03-01T09:03:38;25.33;;;10.75;;
46365;SDS011;32073;49.166;8.076;2023-03-01T09:07:38;19.52;;;10.98;;
46365;SDS011;32073;49.166;8.076;2023-03-01T09:11:39;18.98;;;10.45;;
46365;SDS011;32073;49.166;8.076;2023-03-01T09:15:40;20.58;;;10.68;;
46365;SDS011;32073;49.166;8.076;2023-03-01T09:19:40;21.02;;;12.23;;
46365;SDS011;32073;49.166;8.076;2023-03-01T09:23:42;24.15;;;12.45;;
46365;SDS011;32073;49.166;8.076;2023-03-01T09:27:45;25.90;;;12.10;;
46365;SDS011;32073;49.166;8.076;2023-03-01T09:31:45;17.58;;;10.82;;
46365;SDS011;32073;49.166;8.076;2023-03-01T09:35:46;19.55;;;11.50;;
46365;SDS011;32073;49.166;8.076;2023-03-01T09:39:47;21.95;;;11.27;;
46365;SDS011;32073;49.166;8.076;2023-03-01T09:43:52;19.15;;;11.35;;
46365;SDS011;32073;49.166;8.076;2023-03-01T09:48:00;23.77;;;12.13;;
46365;SDS011;32073;49.166;8.076;2023-03-01T09:57:38;20.60;;;11.52;;
46365;SDS011;32073;49.166;8.076;2023-03-01T10:05:54;26.30;;;13.02;;
46365;SDS011;32073;49.166;8.076;2023-03-01T10:10:04;29.10;;;12.45;;
46365;SDS011;32073;49.166;8.076;2023-03-01T10:18:35;20.08;;;11.50;;
46365;SDS011;32073;49.166;8.076;2023-03-01T10:22:37;19.30;;;11.40;;
46365;SDS011;32073;49.166;8.076;2023-03-01T10:26:57;20.10;;;11.45;;
46365;SDS011;32073;49.166;8.076;2023-03-01T10:31:11;20.13;;;10.90;;
46365;SDS011;32073;49.166;8.076;2023-03-01T10:35:16;20.38;;;11.68;;
46365;SDS011;32073;49.166;8.076;2023-03-01T10:39:29;22.27;;;12.75;;
46365;SDS011;32073;49.166;8.076;2023-03-01T10:43:52;22.25;;;12.05;;
46365;SDS011;32073;49.166;8.076;2023-03-01T10:52:27;22.67;;;11.98;;
46365;SDS011;32073;49.166;8.076;2023-03-01T10:56:45;18.17;;;11.05;;
46365;SDS011;32073;49.166;8.076;2023-03-01T11:00:56;22.17;;;12.27;;
46365;SDS011;32073;49.166;8.076;2023-03-01T11:05:19;22.40;;;13.30;;
46365;SDS011;32073;49.166;8.076;2023-03-01T11:09:26;28.63;;;13.18;;
46365;SDS011;32073;49.166;8.076;2023-03-01T11:13:37;26.85;;;14.35;;
46365;SDS011;32073;49.166;8.076;2023-03-01T11:17:58;27.88;;;15.13;;
46365;SDS011;32073;49.166;8.076;2023-03-01T11:22:07;32.00;;;17.42;;
46365;SDS011;32073;49.166;8.076;2023-03-01T11:26:14;29.35;;;15.30;;
46365;SDS011;32073;49.166;8.076;2023-03-01T11:30:27;24.20;;;13.77;;
46365;SDS011;32073;49.166;8.076;2023-03-01T11:35:02;21.13;;;13.15;;
46365;SDS011;32073;49.166;8.076;2023-03-01T11:48:00;21.63;;;12.57;;
46365;SDS011;32073;49.166;8.076;2023-03-01T11:52:46;20.27;;;13.32;;
46365;SDS011;32073;49.166;8.076;2023-03-01T11:56:57;21.08;;;12.90;;
46365;SDS011;32073;49.166;8.076;2023-03-01T12:01:39;23.33;;;13.52;;
46365;SDS011;32073;49.166;8.076;2023-03-01T12:06:24;20.02;;;12.60;;
46365;SDS011;32073;49.166;8.076;2023-03-01T12:10:34;21.27;;;13.10;;
46365;SDS011;32073;49.166;8.076;2023-03-01T12:14:47;19.50;;;12.25;;
46365;SDS011;32073;49.166;8.076;2023-03-01T12:19:22;20.77;;;12.43;;
46365;SDS011;32073;49.166;8.076;2023-03-01T12:24:06;19.70;;;12.15;;
46365;SDS011;32073;49.166;8.076;2023-03-01T12:28:36;18.02;;;11.93;;
46365;SDS011;32073;49.166;8.076;2023-03-01T12:32:55;19.42;;;11.80;;
46365;SDS011;32073;49.166;8.076;2023-03-01T12:37:29;19.45;;;11.82;;
46365;SDS011;32073;49.166;8.076;2023-03-01T12:50:53;21.45;;;12.75;;
46365;SDS011;32073;49.166;8.076;2023-03-01T12:55:00;22.60;;;12.98;;
46365;SDS011;32073;49.166;8.076;2023-03-01T12:59:15;19.85;;;12.75;;
46365;SDS011;32073;49.166;8.076;2023-03-01T13:16:52;18.20;;;11.82;;
46365;SDS011;32073;49.166;8.076;2023-03-01T13:20:58;21.85;;;12.20;;
46365;SDS011;32073;49.166;8.076;2023-03-01T13:25:01;21.00;;;13.05;;
46365;SDS011;32073;49.166;8.076;2023-03-01T13:29:25;20.00;;;12.10;;
46365;SDS011;32073;49.166;8.076;2023-03-01T13:37:28;20.35;;;12.40;;
46365;SDS011;32073;49.166;8.076;2023-03-01T13:45:39;22.40;;;12.48;;
46365;SDS011;32073;49.166;8.076;2023-03-01T13:53:57;24.13;;;12.65;;
46365;SDS011;32073;49.166;8.076;2023-03-01T13:57:59;20.98;;;12.38;;
46365;SDS011;32073;49.166;8.076;2023-03-01T14:02:10;21.40;;;12.75;;
46365;SDS011;32073;49.166;8.076;2023-03-01T14:10:17;17.17;;;10.45;;
46365;SDS011;32073;49.166;8.076;2023-03-01T14:18:33;19.35;;;11.52;;
46365;SDS011;32073;49.166;8.076;2023-03-01T14:22:47;17.95;;;10.85;;
46365;SDS011;32073;49.166;8.076;2023-03-01T14:26:52;18.30;;;10.93;;
46365;SDS011;32073;49.166;8.076;2023-03-01T14:30:53;17.00;;;10.55;;
46365;SDS011;32073;49.166;8.076;2023-03-01T14:34:59;16.98;;;10.77;;
46365;SDS011;32073;49.166;8.076;2023-03-01T14:39:01;19.23;;;11.45;;
46365;SDS011;32073;49.166;8.076;2023-03-01T14:43:09;15.90;;;10.35;;
46365;SDS011;32073;49.166;8.076;2023-03-01T14:47:12;16.70;;;10.02;;
46365;SDS011;32073;49.166;8.076;2023-03-01T14:51:29;18.30;;;10.23;;
46365;SDS011;32073;49.166;8.076;2023-03-01T14:55:37;13.63;;;9.85;;
46365;SDS011;32073;49.166;8.076;2023-03-01T14:59:41;14.43;;;9.68;;
46365;SDS011;32073;49.166;8.076;2023-03-01T15:03:44;16.88;;;9.75;;
46365;SDS011;32073;49.166;8.076;2023-03-01T15:07:49;18.90;;;10.70;;
46365;SDS011;32073;49.166;8.076;2023-03-01T15:11:52;15.40;;;9.70;;
46365;SDS011;32073;49.166;8.076;2023-03-01T15:15:53;16.52;;;9.30;;
46365;SDS011;32073;49.166;8.076;2023-03-01T15:20:15;16.65;;;10.05;;
46365;SDS011;32073;49.166;8.076;2023-03-01T15:24:24;15.23;;;9.20;;
46365;SDS011;32073;49.166;8.076;2023-03-01T15:28:28;15.13;;;9.18;;
46365;SDS011;32073;49.166;8.076;2023-03-01T15:32:34;13.40;;;8.85;;
46365;SDS011;32073;49.166;8.076;2023-03-01T15:40:49;15.93;;;8.40;;
46365;SDS011;32073;49.166;8.076;2023-03-01T15:45:06;13.38;;;8.35;;
46365;SDS011;32073;49.166;8.076;2023-03-01T15:49:25;14.25;;;8.63;;
46365;SDS011;32073;49.166;8.076;2023-03-01T15:53:30;15.32;;;9.07;;
46365;SDS011;32073;49.166;8.076;2023-03-01T15:57:30;15.43;;;8.32;;
46365;SDS011;32073;49.166;8.076;2023-03-01T16:01:31;14.93;;;8.73;;
46365;SDS011;32073;49.166;8.076;2023-03-01T16:05:34;13.75;;;9.00;;
46365;SDS011;32073;49.166;8.076;2023-03-01T16:09:36;13.43;;;8.25;;
46365;SDS011;32073;49.166;8.076;2023-03-01T16:13:36;16.77;;;8.45;;
46365;SDS011;32073;49.166;8.076;2023-03-01T16:17:37;15.18;;;10.57;;
46365;SDS011;32073;49.166;8.076;2023-03-01T16:21:38;12.23;;;8.38;;
46365;SDS011;32073;49.166;8.076;2023-03-01T16:25:38;15.45;;;8.95;;
46365;SDS011;32073;49.166;8.076;2023-03-01T16:29:39;15.25;;;8.07;;
46365;SDS011;32073;49.166;8.076;2023-03-01T16:33:40;12.80;;;8.23;;
46365;SDS011;32073;49.166;8.076;2023-03-01T16:37:40;14.05;;;7.97;;
46365;SDS011;32073;49.166;8.076;2023-03-01T16:41:41;12.60;;;8.23;;
46365;SDS011;32073;49.166;8.076;2023-03-01T16:45:42;10.65;;;7.38;;
46365;SDS011;32073;49.166;8.076;2023-03-01T16:49:44;13.80;;;7.55;;
46365;SDS011;32073;49.166;8.076;2023-03-01T16:53:45;12.70;;;7.85;;
46365;SDS011;32073;49.166;8.076;2023-03-01T16:57:46;16.73;;;7.70;;
46365;SDS011;32073;49.166;8.076;2023-03-01T17:01:46;15.95;;;8.52;;
46365;SDS011;32073;49.166;8.076;2023-03-01T17:05:47;13.20;;;7.88;;
46365;SDS011;32073;49.166;8.076;2023-03-01T17:09:48;13.55;;;8.25;;
46365;SDS011;32073;49.166;8.076;2023-03-01T17:13:49;12.82;;;7.60;;
46365;SDS011;32073;49.166;8.076;2023-03-01T17:17:49;15.45;;;8.50;;
46365;SDS011;32073;49.166;8.076;2023-03-01T17:21:53;15.65;;;9.32;;
46365;SDS011;32073;49.166;8.076;2023-03-01T17:25:57;16.30;;;9.35;;
46365;SDS011;32073;49.166;8.076;2023-03-01T17:29:58;22.98;;;12.85;;
46365;SDS011;32073;49.166;8.076;2023-03-01T17:33:58;16.23;;;9.10;;
46365;SDS011;32073;49.166;8.076;2023-03-01T17:37:59;15.30;;;8.57;;
46365;SDS011;32073;49.166;8.076;2023-03-01T17:42:00;16.15;;;8.82;;
46365;SDS011;32073;49.166;8.076;2023-03-01T17:46:04;16.63;;;10.23;;
46365;SDS011;32073;49.166;8.076;2023-03-01T17:50:05;27.58;;;14.13;;
46365;SDS011;32073;49.166;8.076;2023-03-01T17:54:07;18.05;;;9.85;;
46365;SDS011;32073;49.166;8.076;2023-03-01T17:58:08;15.18;;;9.48;;
46365;SDS011;32073;49.166;8.076;2023-03-01T18:02:12;13.88;;;8.45;;
46365;SDS011;32073;49.166;8.076;2023-03-01T18:06:18;15.23;;;8.23;;
46365;SDS011;32073;49.166;8.076;2023-03-01T18:10:25;15.73;;;8.65;;
46365;SDS011;32073;49.166;8.076;2023-03-01T18:14:25;14.88;;;8.35;;
46365;SDS011;32073;49.166;8.076;2023-03-01T18:18:28;14.77;;;8.68;;
46365;SDS011;32073;49.166;8.076;2023-03-01T18:22:30;17.65;;;9.07;;
46365;SDS011;32073;49.166;8.076;2023-03-01T18:26:31;12.93;;;7.90;;
46365;SDS011;32073;49.166;8.076;2023-03-01T18:30:31;15.30;;;8.00;;
46365;SDS011;32073;49.166;8.076;2023-03-01T18:34:32;13.88;;;7.82;;
46365;SDS011;32073;49.166;8.076;2023-03-01T18:38:33;11.52;;;7.40;;
46365;SDS011;32073;49.166;8.076;2023-03-01T18:42:34;13.32;;;7.85;;
46365;SDS011;32073;49.166;8.076;2023-03-01T18:46:35;14.55;;;8.00;;
46365;SDS011;32073;49.166;8.076;2023-03-01T18:50:39;16.73;;;8.18;;
46365;SDS011;32073;49.166;8.076;2023-03-01T18:54:40;14.43;;;7.78;;
46365;SDS011;32073;49.166;8.076;2023-03-01T18:58:41;40.22;;;18.42;;
46365;SDS011;32073;49.166;8.076;2023-03-01T19:02:42;18.48;;;10.55;;
46365;SDS011;32073;49.166;8.076;2023-03-01T19:06:43;14.68;;;8.85;;
46365;SDS011;32073;49.166;8.076;2023-03-01T19:10:43;14.98;;;8.48;;
46365;SDS011;32073;49.166;8.076;2023-03-01T19:14:44;20.45;;;12.02;;
46365;SDS011;32073;49.166;8.076;2023-03-01T19:18:45;18.25;;;10.40;;
46365;SDS011;32073;49.166;8.076;2023-03-01T19:22:49;16.10;;;8.93;;
46365;SDS011;32073;49.166;8.076;2023-03-01T19:26:49;19.55;;;9.60;;
46365;SDS011;32073;49.166;8.076;2023-03-01T19:30:50;15.35;;;8.88;;
46365;SDS011;32073;49.166;8.076;2023-03-01T19:34:51;17.13;;;8.90;;
46365;SDS011;32073;49.166;8.076;2023-03-01T19:38:51;15.90;;;7.93;;
46365;SDS011;32073;49.166;8.076;2023-03-01T19:42:52;13.75;;;8.27;;
46365;SDS011;32073;49.166;8.076;2023-03-01T19:46:53;11.98;;;7.43;;
46365;SDS011;32073;49.166;8.076;2023-03-01T19:50:58;12.93;;;7.28;;
46365;SDS011;32073;49.166;8.076;2023-03-01T19:55:00;15.68;;;8.43;;
46365;SDS011;32073;49.166;8.076;2023-03-01T19:59:00;18.05;;;7.95;;
46365;SDS011;32073;49.166;8.076;2023-03-01T20:03:03;13.05;;;7.88;;
46365;SDS011;32073;49.166;8.076;2023-03-01T20:07:04;15.43;;;8.23;;
46365;SDS011;32073;49.166;8.076;2023-03-01T20:11:08;15.32;;;8.20;;
46365;SDS011;32073;49.166;8.076;2023-03-01T20:15:11;17.23;;;9.73;;
46365;SDS011;32073;49.166;8.076;2023-03-01T20:19:11;20.15;;;10.35;;
46365;SDS011;32073;49.166;8.076;2023-03-01T20:23:12;17.50;;;9.40;;
46365;SDS011;32073;49.166;8.076;2023-03-01T20:27:12;17.05;;;9.68;;
46365;SDS011;32073;49.166;8.076;2023-03-01T20:31:14;16.25;;;8.95;;
46365;SDS011;32073;49.166;8.076;2023-03-01T20:35:17;16.38;;;8.55;;
46365;SDS011;32073;49.166;8.076;2023-03-01T20:39:17;18.95;;;9.98;;
46365;SDS011;32073;49.166;8.076;2023-03-01T20:43:18;14.98;;;8.77;;
46365;SDS011;32073;49.166;8.076;2023-03-01T20:47:19;16.55;;;9.07;;
46365;SDS011;32073;49.166;8.076;2023-03-01T20:51:22;16.92;;;8.32;;
46365;SDS011;32073;49.166;8.076;2023-03-01T20:55:23;17.50;;;9.02;;
46365;SDS011;32073;49.166;8.076;2023-03-01T20:59:23;14.70;;;8.60;;
46365;SDS011;32073;49.166;8.076;2023-03-01T21:03:24;13.82;;;8.38;;
46365;SDS011;32073;49.166;8.076;2023-03-01T21:07:25;14.25;;;8.32;;
46365;SDS011;32073;49.166;8.076;2023-03-01T21:11:26;16.80;;;9.23;;
46365;SDS011;32073;49.166;8.076;2023-03-01T21:15:26;15.40;;;8.80;;
46365;SDS011;32073;49.166;8.076;2023-03-01T21:19:27;15.57;;;8.98;;
46365;SDS011;32073;49.166;8.076;2023-03-01T21:23:28;19.58;;;9.18;;
46365;SDS011;32073;49.166;8.076;2023-03-01T21:27:34;15.82;;;8.30;;
46365;SDS011;32073;49.166;8.076;2023-03-01T21:31:36;16.50;;;8.48;;
46365;SDS011;32073;49.166;8.076;2023-03-01T21:35:37;14.07;;;8.32;;
46365;SDS011;32073;49.166;8.076;2023-03-01T21:39:38;17.45;;;8.68;;
46365;SDS011;32073;49.166;8.076;2023-03-01T21:43:39;16.20;;;8.40;;
46365;SDS011;32073;49.166;8.076;2023-03-01T21:47:41;17.42;;;8.50;;
46365;SDS011;32073;49.166;8.076;2023-03-01T21:51:42;15.27;;;8.38;;
46365;SDS011;32073;49.166;8.076;2023-03-01T21:55:46;17.77;;;9.05;;
46365;SDS011;32073;49.166;8.076;2023-03-01T21:59:48;15.77;;;8.65;;
46365;SDS011;32073;49.166;8.076;2023-03-01T22:03:49;14.82;;;8.02;;
46365;SDS011;32073;49.166;8.076;2023-03-01T22:07:49;14.70;;;8.30;;
46365;SDS011;32073;49.166;8.076;2023-03-01T22:11:54;17.13;;;9.20;;
46365;SDS011;32073;49.166;8.076;2023-03-01T22:16:01;17.80;;;9.07;;
46365;SDS011;32073;49.166;8.076;2023-03-01T22:20:02;14.68;;;8.15;;
46365;SDS011;32073;49.166;8.076;2023-03-01T22:24:03;16.67;;;8.60;;
46365;SDS011;32073;49.166;8.076;2023-03-01T22:28:04;17.65;;;8.38;;
46365;SDS011;32073;49.166;8.076;2023-03-01T22:32:05;15.15;;;8.15;;
46365;SDS011;32073;49.166;8.076;2023-03-01T22:36:05;15.13;;;8.07;;
46365;SDS011;32073;49.166;8.076;2023-03-01T22:40:08;15.07;;;8.80;;
46365;SDS011;32073;49.166;8.076;2023-03-01T22:44:13;16.98;;;8.55;;
46365;SDS011;32073;49.166;8.076;2023-03-01T22:48:16;15.50;;;8.63;;
46365;SDS011;32073;49.166;8.076;2023-03-01T22:52:16;16.13;;;9.02;;
46365;SDS011;32073;49.166;8.076;2023-03-01T22:56:21;17.67;;;8.90;;
46365;SDS011;32073;49.166;8.076;2023-03-01T23:00:25;17.85;;;9.27;;
46365;SDS011;32073;49.166;8.076;2023-03-01T23:04:25;15.27;;;8.90;;
46365;SDS011;32073;49.166;8.076;2023-03-01T23:08:26;16.77;;;9.25;;
46365;SDS011;32073;49.166;8.076;2023-03-01T23:12:27;17.77;;;8.30;;
46365;SDS011;32073;49.166;8.076;2023-03-01T23:16:28;15.55;;;9.23;;
46365;SDS011;32073;49.166;8.076;2023-03-01T23:20:29;19.95;;;9.48;;
46365;SDS011;32073;49.166;8.076;2023-03-01T23:24:29;18.20;;;9.65;;
46365;SDS011;32073;49.166;8.076;2023-03-01T23:28:30;17.45;;;9.18;;
46365;SDS011;32073;49.166;8.076;2023-03-01T23:32:31;17.00;;;8.85;;
46365;SDS011;32073;49.166;8.076;2023-03-01T23:36:32;15.90;;;8.55;;
46365;SDS011;32073;49.166;8.076;2023-03-01T23:40:36;14.60;;;8.70;;
46365;SDS011;32073;49.166;8.076;2023-03-01T23:44:38;20.23;;;9.43;;
46365;SDS011;32073;49.166;8.076;2023-03-01T23:48:40;15.77;;;8.70;;
46365;SDS011;32073;49.166;8.076;2023-03-01T23:52:41;17.80;;;9.27;;
46365;SDS011;32073;49.166;8.076;2023-03-01T23:56:42;16.30;;;8.23;;
